Time;durP1;ratioP1;P1;durP2;ratioP2;P2;SDS_P1;SDS_P2;PMS_P1;PMS_P2;Temp;Humidity;BMP_temperature;BMP_pressure;BME280_temperature;BME280_humidity;BME280_pressure;Samples;Min_cycle;Max_cycle;Signal;HPM_P1;HPM_P2
2023/08/28 00:01:34;;;;;;;;;;;;;;;9.76;54.05;95189.44;4955362;28;20245;-75
2023/08/28 00:03:59;;;;;;;;;;;;;;;9.75;52.90;95190.44;4954460;28;19933;-74
2023/08/28 00:06:25;;;;;;;;;;;;;;;9.82;55.54;95198.53;4960156;28;19937;-75
2023/08/28 00:08:50;;;;;;;;;;;;;;;9.85;53.29;95196.34;4954657;28;20020;-75
2023/08/28 00:11:15;;;;;;;;;;;;;;;9.90;53.78;95192.28;4958478;28;19984;-75
2023/08/28 00:13:41;;;;;;;;;;;;;;;10.02;56.25;95193.47;4954077;28;19962;-75
2023/08/28 00:16:06;;;;;;;;;;;;;;;10.12;54.56;95189.72;4957053;28;20295;-75
2023/08/28 00:18:31;;;;;;;;;;;;;;;10.21;53.95;95191.28;4956215;28;19992;-75
2023/08/28 00:20:56;;;;;;;;;;;;;;;10.30;54.92;95189.34;4960735;28;20032;-75
2023/08/28 00:23:22;;;;;;;;;;;;;;;10.44;55.48;95199.13;4955176;28;19953;-75
2023/08/28 00:25:47;;;;;;;;;;;;;;;10.36;53.44;95201.88;4957699;28;19970;-75
2023/08/28 00:28:12;;;;;;;;;;;;;;;10.28;55.33;95197.53;4954568;28;20017;-75
2023/08/28 00:30:37;;;;;;;;;;;;;;;10.30;56.16;95190.16;4959269;28;20032;-74
2023/08/28 00:33:03;;;;;;;;;;;;;;;10.43;55.08;95186.00;4954583;28;20869;-75
2023/08/28 00:35:28;;;;;;;;;;;;;;;10.48;55.09;95178.28;4955908;28;19963;-75
2023/08/28 00:37:54;;;;;;;;;;;;;;;10.53;54.44;95183.03;4959680;28;19944;-74
2023/08/28 00:40:19;;;;;;;;;;;;;;;10.01;51.66;95183.03;4956652;28;19974;-75
2023/08/28 00:42:44;;;;;;;;;;;;;;;10.21;54.37;95184.13;4960419;28;19947;-75
2023/08/28 00:45:09;;;;;;;;;;;;;;;10.35;54.52;95182.47;4955144;28;19969;-74
2023/08/28 00:47:35;;;;;;;;;;;;;;;10.52;54.00;95179.56;4957605;28;20018;-74
2023/08/28 00:50:00;;;;;;;;;;;;;;;10.61;54.37;95173.09;4954260;28;19976;-75
2023/08/28 00:52:25;;;;;;;;;;;;;;;10.52;51.10;95165.41;4957258;28;19963;-74
2023/08/28 00:54:50;;;;;;;;;;;;;;;10.42;52.53;95171.03;4953531;28;19990;-74
2023/08/28 00:57:16;;;;;;;;;;;;;;;10.42;53.21;95165.72;4955669;28;20437;-74
2023/08/28 00:59:42;;;;;;;;;;;;;;;10.45;52.65;95158.19;4959621;28;19926;-74
2023/08/28 01:02:07;;;;;;;;;;;;;;;10.49;54.50;95158.63;4956725;28;20261;-74
2023/08/28 01:04:32;;;;;;;;;;;;;;;10.45;52.73;95157.38;4954068;28;19934;-74
2023/08/28 01:07:16;;;;;;;;;;;;;;;10.23;54.19;95149.34;4954611;28;19927;-74
2023/08/28 01:09:46;;;;;;;;;;;;;;;10.06;54.43;95141.59;4957834;28;20016;-74
2023/08/28 01:12:14;;;;;;;;;;;;;;;9.67;54.73;95132.06;4952306;28;20208;-74
2023/08/28 01:14:43;;;;;;;;;;;;;;;9.71;55.11;95130.69;4954582;28;19937;-74
2023/08/28 01:17:09;;;;;;;;;;;;;;;9.51;54.79;95125.94;4953531;28;19930;-73
2023/08/28 01:19:38;;;;;;;;;;;;;;;9.33;54.96;95124.47;4948660;28;19933;-74
2023/08/28 01:22:13;;;;;;;;;;;;;;;9.21;55.59;95128.56;4955970;28;20207;-74
2023/08/28 01:24:41;;;;;;;;;;;;;;;9.22;55.80;95124.09;4955393;28;19933;-74
2023/08/28 01:27:07;;;;;;;;;;;;;;;9.34;55.95;95122.63;4957776;28;19997;-74
2023/08/28 01:29:33;;;;;;;;;;;;;;;9.35;55.23;95118.16;4962439;28;19930;-74
2023/08/28 01:31:58;;;;;;;;;;;;;;;9.31;56.74;95123.81;4958369;28;19926;-73
2023/08/28 01:34:23;;;;;;;;;;;;;;;9.56;55.28;95130.72;4958384;28;20307;-74
2023/08/28 01:36:49;;;;;;;;;;;;;;;9.59;56.13;95125.03;4961168;28;20048;-73
2023/08/28 01:39:17;;;;;;;;;;;;;;;9.61;55.92;95128.31;4963200;28;19933;-72
2023/08/28 01:41:42;;;;;;;;;;;;;;;9.57;54.49;95119.91;4958744;28;19918;-72
2023/08/28 01:44:08;;;;;;;;;;;;;;;9.55;54.50;95113.94;4953906;28;19976;-72
2023/08/28 01:46:33;;;;;;;;;;;;;;;9.50;53.26;95116.31;4955966;28;19953;-72
2023/08/28 01:48:58;;;;;;;;;;;;;;;9.45;54.82;95118.69;4956434;28;19965;-72
2023/08/28 01:51:24;;;;;;;;;;;;;;;9.38;55.26;95139.03;4957651;28;19961;-72
2023/08/28 01:53:49;;;;;;;;;;;;;;;9.37;56.17;95145.34;4958869;28;20439;-72
2023/08/28 01:56:18;;;;;;;;;;;;;;;9.34;56.45;95143.88;4956478;28;19957;-72
2023/08/28 01:58:44;;;;;;;;;;;;;;;9.32;57.24;95140.59;4959803;28;20446;-72
2023/08/28 02:01:10;;;;;;;;;;;;;;;9.29;54.68;95143.59;4959210;28;19965;-72
2023/08/28 02:03:36;;;;;;;;;;;;;;;9.28;55.54;95149.94;4959244;28;20016;-72
2023/08/28 02:06:01;;;;;;;;;;;;;;;9.27;56.82;95151.75;4954268;28;19956;-73
2023/08/28 02:08:27;;;;;;;;;;;;;;;9.21;57.40;95157.78;4958709;28;20022;-72
2023/08/28 02:10:52;;;;;;;;;;;;;;;9.01;54.67;95154.84;4958229;28;19969;-72
2023/08/28 02:13:17;;;;;;;;;;;;;;;8.87;54.71;95154.56;4959518;28;19968;-72
2023/08/28 02:15:42;;;;;;;;;;;;;;;8.91;52.47;95160.34;4958080;28;20016;-72
2023/08/28 02:18:07;;;;;;;;;;;;;;;8.63;56.28;95166.19;4956995;28;19987;-72
2023/08/28 02:20:33;;;;;;;;;;;;;;;8.62;53.42;95173.34;4958567;28;20604;-72
2023/08/28 02:22:58;;;;;;;;;;;;;;;8.30;54.31;95181.31;4958174;28;20286;-72
2023/08/28 02:25:23;;;;;;;;;;;;;;;8.43;55.74;95185.22;4960540;28;20009;-72
2023/08/28 02:27:49;;;;;;;;;;;;;;;8.50;54.23;95188.03;4956036;28;19944;-72
2023/08/28 02:30:15;;;;;;;;;;;;;;;8.53;56.15;95185.00;4956932;28;19970;-72
2023/08/28 02:32:40;;;;;;;;;;;;;;;8.56;56.35;95180.19;4956480;28;19977;-72
2023/08/28 02:35:06;;;;;;;;;;;;;;;8.60;55.34;95177.19;4958345;28;20028;-72
2023/08/28 02:37:31;;;;;;;;;;;;;;;8.60;55.15;95174.53;4956591;28;20220;-72
2023/08/28 02:39:56;;;;;;;;;;;;;;;8.49;55.05;95168.59;4958059;28;20119;-72
2023/08/28 02:42:21;;;;;;;;;;;;;;;8.43;54.88;95158.69;4962733;28;19969;-72
2023/08/28 02:44:47;;;;;;;;;;;;;;;8.26;55.38;95164.09;4956566;28;19926;-72
2023/08/28 02:47:12;;;;;;;;;;;;;;;8.27;57.24;95163.09;4955702;28;19929;-72
2023/08/28 02:49:37;;;;;;;;;;;;;;;8.35;56.43;95159.56;4957589;28;20249;-72
2023/08/28 02:52:02;;;;;;;;;;;;;;;8.46;57.64;95168.16;4960183;28;20296;-72
2023/08/28 02:54:28;;;;;;;;;;;;;;;8.51;58.23;95165.78;4956186;28;19964;-72
2023/08/28 02:56:53;;;;;;;;;;;;;;;8.53;58.47;95174.38;4960973;28;20354;-72
2023/08/28 02:59:18;;;;;;;;;;;;;;;8.53;58.91;95174.38;4959019;28;19960;-72
2023/08/28 03:01:43;;;;;;;;;;;;;;;8.51;57.90;95171.94;4958991;28;20180;-72
2023/08/28 03:04:09;;;;;;;;;;;;;;;8.46;57.55;95165.50;4958463;28;19953;-72
2023/08/28 03:06:37;;;;;;;;;;;;;;;8.46;57.74;95163.66;4958318;28;19922;-73
2023/08/28 03:09:03;;;;;;;;;;;;;;;8.41;56.18;95156.25;4956468;28;19989;-72
2023/08/28 03:11:28;;;;;;;;;;;;;;;8.37;56.28;95164.72;4957768;28;20521;-72
2023/08/28 03:13:54;;;;;;;;;;;;;;;8.34;55.98;95165.06;4956448;28;20054;-72
2023/08/28 03:16:19;;;;;;;;;;;;;;;8.29;55.67;95168.22;4955284;28;20360;-72
2023/08/28 03:18:44;;;;;;;;;;;;;;;8.26;57.10;95168.59;4956988;28;19958;-72
2023/08/28 03:21:09;;;;;;;;;;;;;;;8.24;57.14;95173.22;4955495;28;19957;-72
2023/08/28 03:23:35;;;;;;;;;;;;;;;8.21;59.08;95163.81;4960608;28;19981;-72
2023/08/28 03:26:00;;;;;;;;;;;;;;;8.16;53.08;95159.00;4955156;28;20039;-72
2023/08/28 03:28:25;;;;;;;;;;;;;;;8.01;53.77;95156.28;4954886;28;19977;-72
2023/08/28 03:30:50;;;;;;;;;;;;;;;7.97;58.96;95151.50;4955575;28;20021;-72
2023/08/28 03:33:16;;;;;;;;;;;;;;;8.01;56.55;95152.78;4955511;28;19957;-72
2023/08/28 03:35:41;;;;;;;;;;;;;;;8.11;56.98;95152.59;4956416;28;19933;-72
2023/08/28 03:38:06;;;;;;;;;;;;;;;8.16;55.91;95153.72;4955850;28;20315;-72
2023/08/28 03:40:31;;;;;;;;;;;;;;;8.24;58.03;95154.66;4953142;28;19930;-72
2023/08/28 03:42:57;;;;;;;;;;;;;;;8.25;56.98;95143.88;4951815;28;20048;-72
2023/08/28 03:45:22;;;;;;;;;;;;;;;8.25;56.31;95137.75;4956950;28;20193;-72
2023/08/28 03:47:47;;;;;;;;;;;;;;;8.26;55.52;95144.72;4954585;28;19934;-72
2023/08/28 03:50:12;;;;;;;;;;;;;;;8.26;54.61;95150.84;4957242;28;20027;-72
2023/08/28 03:52:38;;;;;;;;;;;;;;;8.24;55.71;95149.38;4954855;28;20048;-72
2023/08/28 03:55:03;;;;;;;;;;;;;;;8.24;57.72;95150.19;4954197;28;20294;-72
2023/08/28 03:57:28;;;;;;;;;;;;;;;8.23;58.00;95150.38;4956273;28;19930;-72
2023/08/28 03:59:53;;;;;;;;;;;;;;;8.25;58.60;95151.00;4956566;28;20300;-72
2023/08/28 04:02:19;;;;;;;;;;;;;;;8.25;59.58;95154.50;4958757;28;20094;-72
2023/08/28 04:04:44;;;;;;;;;;;;;;;8.24;58.31;95155.50;4957048;28;19949;-72
2023/08/28 04:07:10;;;;;;;;;;;;;;;8.25;57.55;95158.97;4954747;28;20024;-72
2023/08/28 04:09:35;;;;;;;;;;;;;;;8.25;57.86;95143.88;4953659;28;20060;-72
2023/08/28 04:12:01;;;;;;;;;;;;;;;8.25;57.88;95140.41;4953918;28;20200;-72
2023/08/28 04:14:26;;;;;;;;;;;;;;;8.21;55.16;95139.94;4954783;28;20016;-72
2023/08/28 04:16:53;;;;;;;;;;;;;;;8.18;56.60;95129.69;4954965;28;20114;-72
2023/08/28 04:19:18;;;;;;;;;;;;;;;8.18;55.94;95130.50;4955923;28;19926;-72
2023/08/28 04:21:44;;;;;;;;;;;;;;;8.17;56.14;95128.84;4956737;28;20187;-72
2023/08/28 04:24:09;;;;;;;;;;;;;;;8.19;58.18;95131.31;4954272;28;19976;-72
2023/08/28 04:26:34;;;;;;;;;;;;;;;8.19;57.35;95128.66;4958013;28;19964;-72
2023/08/28 04:28:59;;;;;;;;;;;;;;;8.16;58.39;95126.38;4956783;28;20363;-72
2023/08/28 04:31:24;;;;;;;;;;;;;;;8.17;57.71;95118.22;4954294;28;19984;-72
2023/08/28 04:33:50;;;;;;;;;;;;;;;8.26;57.81;95124.31;4954313;28;20015;-73
2023/08/28 04:36:15;;;;;;;;;;;;;;;8.28;57.61;95114.38;4954885;28;20056;-72
2023/08/28 04:38:40;;;;;;;;;;;;;;;8.32;56.05;95124.63;4960657;28;20378;-72
2023/08/28 04:41:05;;;;;;;;;;;;;;;8.36;57.16;95110.03;4954571;28;19953;-72
2023/08/28 04:43:31;;;;;;;;;;;;;;;8.37;54.55;95093.09;4947815;28;19926;-72
2023/08/28 04:45:56;;;;;;;;;;;;;;;8.21;52.49;95086.91;4954862;28;19922;-72
2023/08/28 04:48:21;;;;;;;;;;;;;;;8.14;56.13;95086.78;4955944;28;20033;-72
2023/08/28 04:50:47;;;;;;;;;;;;;;;8.15;58.75;95092.91;4954709;28;19969;-72
2023/08/28 04:53:12;;;;;;;;;;;;;;;8.03;56.85;95097.78;4953324;28;20387;-72
2023/08/28 04:55:37;;;;;;;;;;;;;;;8.07;58.14;95099.09;4957430;28;19926;-72
2023/08/28 04:58:03;;;;;;;;;;;;;;;8.38;58.75;95098.22;4952966;28;20161;-72
2023/08/28 05:00:28;;;;;;;;;;;;;;;8.60;58.27;95110.84;4958225;28;20425;-71
2023/08/28 05:02:53;;;;;;;;;;;;;;;8.71;57.23;95110.41;4954090;28;20161;-72
2023/08/28 05:05:18;;;;;;;;;;;;;;;8.71;58.63;95112.22;4952895;28;20036;-72
2023/08/28 05:07:44;;;;;;;;;;;;;;;8.72;58.21;95112.06;4953518;28;20199;-72
2023/08/28 05:10:09;;;;;;;;;;;;;;;8.85;58.35;95111.47;4952916;28;20035;-75
2023/08/28 05:12:34;;;;;;;;;;;;;;;8.95;57.80;95108.59;4953452;28;20090;-72
2023/08/28 05:15:00;;;;;;;;;;;;;;;8.79;58.21;95115.66;4954826;28;19968;-71
2023/08/28 05:17:25;;;;;;;;;;;;;;;8.61;59.46;95115.97;4951499;28;20000;-72
2023/08/28 05:19:50;;;;;;;;;;;;;;;8.63;59.36;95108.66;4955137;28;19968;-71
2023/08/28 05:22:15;;;;;;;;;;;;;;;8.71;59.26;95102.47;4956231;28;19956;-72
2023/08/28 05:24:41;;;;;;;;;;;;;;;8.90;58.72;95105.59;4954698;28;20061;-72
2023/08/28 05:27:08;;;;;;;;;;;;;;;9.27;57.79;95093.31;4957043;28;20323;-71
2023/08/28 05:29:33;;;;;;;;;;;;;;;9.45;57.59;95100.91;4953591;28;20029;-71
2023/08/28 05:31:58;;;;;;;;;;;;;;;9.68;55.62;95109.78;4955062;28;20075;-72
2023/08/28 05:34:23;;;;;;;;;;;;;;;9.69;56.04;95108.81;4953062;28;19992;-71
2023/08/28 05:36:49;;;;;;;;;;;;;;;9.72;55.36;95114.56;4955805;28;20454;-73
2023/08/28 05:39:14;;;;;;;;;;;;;;;9.80;55.21;95112.81;4957143;28;20286;-71
2023/08/28 05:41:39;;;;;;;;;;;;;;;9.87;54.87;95108.41;4954680;28;19977;-72
2023/08/28 05:44:04;;;;;;;;;;;;;;;9.92;54.15;95106.00;4952401;28;19958;-73
2023/08/28 05:46:30;;;;;;;;;;;;;;;9.99;52.88;95111.41;4957172;28;19952;-71
2023/08/28 05:48:55;;;;;;;;;;;;;;;10.08;53.76;95098.84;4956084;28;20341;-73
2023/08/28 05:51:20;;;;;;;;;;;;;;;10.12;52.99;95107.28;4950250;28;19965;-72
2023/08/28 05:53:45;;;;;;;;;;;;;;;10.15;52.45;95110.41;4948892;28;19954;-72
2023/08/28 05:56:11;;;;;;;;;;;;;;;10.21;53.05;95111.47;4955621;28;20054;-72
2023/08/28 05:58:36;;;;;;;;;;;;;;;10.29;52.64;95116.69;4952342;28;20030;-73
2023/08/28 06:01:02;;;;;;;;;;;;;;;10.43;52.86;95111.47;4951599;28;20270;-71
2023/08/28 06:03:28;;;;;;;;;;;;;;;10.60;53.64;95104.91;4951362;28;19967;-72
2023/08/28 06:05:54;;;;;;;;;;;;;;;10.72;51.83;95110.53;4952481;28;19952;-72
2023/08/28 06:08:19;;;;;;;;;;;;;;;10.87;53.13;95106.97;4952756;28;19990;-72
2023/08/28 06:10:45;;;;;;;;;;;;;;;10.85;51.78;95107.16;4954514;28;19949;-72
2023/08/28 06:13:10;;;;;;;;;;;;;;;10.90;52.57;95109.25;4960055;28;20482;-72
2023/08/28 06:15:35;;;;;;;;;;;;;;;11.03;52.42;95113.88;4957043;28;19991;-72
2023/08/28 06:18:00;;;;;;;;;;;;;;;11.29;52.39;95116.94;4958305;28;19996;-71
2023/08/28 06:20:26;;;;;;;;;;;;;;;11.58;52.52;95115.88;4954209;28;19991;-72
2023/08/28 06:22:51;;;;;;;;;;;;;;;11.87;51.85;95118.50;4959616;28;20415;-74
2023/08/28 06:25:17;;;;;;;;;;;;;;;11.68;52.31;95120.88;4959566;28;20487;-73
2023/08/28 06:27:43;;;;;;;;;;;;;;;11.63;52.94;95116.13;4955624;28;19968;-74
2023/08/28 06:30:09;;;;;;;;;;;;;;;11.85;52.73;95124.03;4958587;28;20316;-74
2023/08/28 06:32:35;;;;;;;;;;;;;;;11.80;52.63;95118.44;4957464;28;20058;-73
2023/08/28 06:35:00;;;;;;;;;;;;;;;11.87;52.52;95113.16;4953960;28;20307;-74
2023/08/28 06:37:25;;;;;;;;;;;;;;;11.39;54.00;95112.91;4960471;28;19982;-75
2023/08/28 06:39:53;;;;;;;;;;;;;;;10.96;55.31;95115.66;4959273;28;20511;-74
2023/08/28 06:42:18;;;;;;;;;;;;;;;11.04;55.37;95117.34;4954616;28;19948;-73
2023/08/28 06:44:44;;;;;;;;;;;;;;;11.17;55.47;95113.97;4954912;28;20306;-74
2023/08/28 06:47:09;;;;;;;;;;;;;;;11.36;54.20;95120.47;4957043;28;20043;-74
2023/08/28 06:49:34;;;;;;;;;;;;;;;11.10;54.91;95122.75;4960029;28;19982;-74
2023/08/28 06:51:59;;;;;;;;;;;;;;;11.17;55.30;95121.97;4955546;28;20529;-73
2023/08/28 06:54:25;;;;;;;;;;;;;;;11.38;54.45;95127.25;4955083;28;19981;-73
2023/08/28 06:56:50;;;;;;;;;;;;;;;11.51;53.98;95123.84;4892585;28;1792834;-75
2023/08/28 06:59:15;;;;;;;;;;;;;;;11.90;53.43;95126.91;4973621;28;20366;-74
2023/08/28 07:01:41;;;;;;;;;;;;;;;11.83;53.57;95131.38;4952761;28;20282;-75
2023/08/28 07:04:07;;;;;;;;;;;;;;;11.96;52.83;95132.47;4956149;28;20361;-75
2023/08/28 07:06:32;;;;;;;;;;;;;;;12.28;51.37;95135.50;4961346;28;20367;-75
2023/08/28 07:08:57;;;;;;;;;;;;;;;12.39;51.94;95132.25;4957412;28;19977;-73
2023/08/28 07:11:23;;;;;;;;;;;;;;;12.56;52.19;95129.22;4962750;28;20493;-74
2023/08/28 07:13:49;;;;;;;;;;;;;;;12.64;52.34;95130.84;4955187;28;20034;-74
2023/08/28 07:16:14;;;;;;;;;;;;;;;12.44;53.03;95133.50;4958482;28;20489;-74
2023/08/28 07:18:39;;;;;;;;;;;;;;;12.69;51.99;95130.25;4954976;28;19950;-74
2023/08/28 07:21:05;;;;;;;;;;;;;;;12.97;50.63;95132.75;4960082;28;19996;-74
2023/08/28 07:23:30;;;;;;;;;;;;;;;13.35;49.75;95134.00;4958697;28;20348;-74
2023/08/28 07:25:56;;;;;;;;;;;;;;;13.42;49.58;95129.44;4955277;28;20466;-74
2023/08/28 07:28:22;;;;;;;;;;;;;;;13.49;48.83;95126.75;4958191;28;20322;-74
2023/08/28 07:30:47;;;;;;;;;;;;;;;13.61;48.80;95134.97;4955627;28;19945;-73
2023/08/28 07:33:12;;;;;;;;;;;;;;;13.70;49.05;95130.19;4952975;28;20238;-73
2023/08/28 07:35:37;;;;;;;;;;;;;;;13.70;47.97;95133.72;4958311;28;20324;-73
2023/08/28 07:38:04;;;;;;;;;;;;;;;13.81;47.18;95126.88;4956549;28;19929;-73
2023/08/28 07:40:29;;;;;;;;;;;;;;;13.61;48.87;95126.13;4957973;28;19972;-73
2023/08/28 07:42:54;;;;;;;;;;;;;;;13.53;49.15;95135.22;4954211;28;20291;-72
2023/08/28 07:45:19;;;;;;;;;;;;;;;13.30;48.58;95133.78;4954746;28;20620;-72
2023/08/28 07:47:45;;;;;;;;;;;;;;;13.43;49.42;95135.63;4954268;28;19965;-73
2023/08/28 07:50:10;;;;;;;;;;;;;;;13.57;48.62;95131.09;4958548;28;20187;-73
2023/08/28 07:52:36;;;;;;;;;;;;;;;13.30;48.25;95137.28;4955807;28;20341;-72
2023/08/28 07:55:01;;;;;;;;;;;;;;;13.23;49.08;95131.13;4955815;28;19946;-73
2023/08/28 07:57:26;;;;;;;;;;;;;;;13.27;48.17;95123.50;4956171;28;19966;-72
2023/08/28 07:59:51;;;;;;;;;;;;;;;13.42;48.60;95129.44;4952026;28;20063;-72
2023/08/28 08:02:17;;;;;;;;;;;;;;;13.59;48.43;95138.91;4960588;28;19996;-73
2023/08/28 08:04:42;;;;;;;;;;;;;;;13.42;48.13;95134.81;4953429;28;20066;-73
2023/08/28 08:07:07;;;;;;;;;;;;;;;13.74;47.17;95135.97;4957756;28;20448;-72
2023/08/28 08:09:32;;;;;;;;;;;;;;;13.83;47.67;95132.84;4955518;28;20750;-73
2023/08/28 08:11:58;;;;;;;;;;;;;;;14.18;46.13;95131.72;4958252;28;20443;-73
2023/08/28 08:14:23;;;;;;;;;;;;;;;14.11;46.66;95132.78;4954642;28;20007;-73
2023/08/28 08:16:48;;;;;;;;;;;;;;;14.32;46.07;95126.31;4959098;28;19959;-72
2023/08/28 08:19:13;;;;;;;;;;;;;;;14.18;47.32;95129.03;4957944;28;20151;-72
2023/08/28 08:21:39;;;;;;;;;;;;;;;13.77;48.35;95127.53;4958218;28;20389;-72
2023/08/28 08:24:04;;;;;;;;;;;;;;;13.38;48.57;95128.22;4954452;28;19975;-73
2023/08/28 08:26:29;;;;;;;;;;;;;;;13.48;48.99;95126.97;4956849;28;20194;-73
2023/08/28 08:28:55;;;;;;;;;;;;;;;13.46;50.07;95126.38;4954740;28;20078;-72
2023/08/28 08:31:20;;;;;;;;;;;;;;;13.07;48.19;95121.69;4955627;28;20771;-73
2023/08/28 08:33:45;;;;;;;;;;;;;;;12.93;50.16;95118.97;4954818;28;20213;-72
2023/08/28 08:36:14;;;;;;;;;;;;;;;13.36;49.13;95114.22;4956040;28;20058;-72
2023/08/28 08:38:39;;;;;;;;;;;;;;;13.08;48.66;95109.94;4955087;28;20006;-72
2023/08/28 08:41:04;;;;;;;;;;;;;;;12.86;51.36;95102.13;4955951;28;19960;-72
2023/08/28 08:43:30;;;;;;;;;;;;;;;13.17;49.60;95094.53;4958909;28;20180;-72
2023/08/28 08:45:55;;;;;;;;;;;;;;;13.12;51.59;95094.34;4952359;28;19939;-72
2023/08/28 08:48:21;;;;;;;;;;;;;;;12.98;50.18;95099.66;4953984;28;20602;-72
2023/08/28 08:50:46;;;;;;;;;;;;;;;13.02;49.67;95108.13;4953109;28;20383;-73
2023/08/28 08:53:33;;;;;;;;;;;;;;;13.35;49.11;95109.94;4953784;28;19956;-73
2023/08/28 08:56:00;;;;;;;;;;;;;;;13.61;48.23;95113.59;4952728;28;20415;-73
2023/08/28 08:58:25;;;;;;;;;;;;;;;13.75;47.42;95126.91;4954840;28;19968;-72
2023/08/28 09:00:50;;;;;;;;;;;;;;;14.07;46.98;95133.22;4958073;28;19966;-73
2023/08/28 09:03:16;;;;;;;;;;;;;;;14.42;46.95;95142.72;4954887;28;20195;-73
2023/08/28 09:05:41;;;;;;;;;;;;;;;14.59;45.99;95139.56;4953166;28;20247;-73
2023/08/28 09:08:07;;;;;;;;;;;;;;;15.11;45.65;95135.91;4950509;28;19965;-73
2023/08/28 09:10:32;;;;;;;;;;;;;;;15.22;45.73;95131.69;4955273;28;20319;-73
2023/08/28 09:12:57;;;;;;;;;;;;;;;15.53;43.86;95129.16;4952784;28;19926;-74
2023/08/28 09:15:23;;;;;;;;;;;;;;;16.06;43.89;95125.09;4953473;28;19926;-73
2023/08/28 09:17:48;;;;;;;;;;;;;;;15.80;43.05;95131.56;4956767;28;19918;-73
2023/08/28 09:20:16;;;;;;;;;;;;;;;15.82;44.01;95124.13;4954571;28;20363;-73
2023/08/28 09:22:51;;;;;;;;;;;;;;;15.69;44.24;95125.94;4957879;28;20401;-73
2023/08/28 09:25:17;;;;;;;;;;;;;;;15.66;42.90;95122.84;4952535;28;19948;-73
2023/08/28 09:27:43;;;;;;;;;;;;;;;15.06;43.96;95114.31;4952592;28;20804;-73
2023/08/28 09:30:08;;;;;;;;;;;;;;;14.48;45.34;95108.09;4951420;28;19922;-72
2023/08/28 09:32:34;;;;;;;;;;;;;;;13.53;45.27;95105.78;4954008;28;19957;-72
2023/08/28 09:34:59;;;;;;;;;;;;;;;13.61;46.77;95110.91;4953288;28;19951;-73
2023/08/28 09:37:24;;;;;;;;;;;;;;;13.48;46.08;95105.56;4957267;28;20022;-72
2023/08/28 09:39:56;;;;;;;;;;;;;;;13.73;47.29;95099.56;4951649;28;20223;-72
2023/08/28 09:42:24;;;;;;;;;;;;;;;13.03;47.10;95107.09;4953718;28;20301;-73
2023/08/28 09:44:49;;;;;;;;;;;;;;;13.70;46.83;95106.13;4954481;28;19960;-73
2023/08/28 09:47:23;;;;;;;;;;;;;;;14.06;46.22;95117.38;4956736;28;20345;-73
2023/08/28 09:49:49;;;;;;;;;;;;;;;14.42;43.96;95105.22;4954865;28;20057;-72
2023/08/28 09:52:14;;;;;;;;;;;;;;;14.74;45.03;95111.66;4959395;28;19992;-73
2023/08/28 09:54:42;;;;;;;;;;;;;;;14.35;43.82;95115.19;4956991;28;19945;-73
2023/08/28 09:57:14;;;;;;;;;;;;;;;14.72;44.56;95114.53;4959301;28;20528;-73
2023/08/28 09:59:39;;;;;;;;;;;;;;;14.19;44.22;95117.31;4960630;28;19962;-75
2023/08/28 10:02:05;;;;;;;;;;;;;;;14.50;44.10;95122.09;4958041;28;20035;-74
2023/08/28 10:04:32;;;;;;;;;;;;;;;14.92;43.97;95124.34;4955157;28;20452;-74
2023/08/28 10:06:57;;;;;;;;;;;;;;;14.65;43.94;95125.28;4956135;28;19983;-73
2023/08/28 10:09:24;;;;;;;;;;;;;;;15.07;43.33;95126.69;4956651;28;20002;-73
2023/08/28 10:11:53;;;;;;;;;;;;;;;15.19;43.88;95124.91;4959204;28;20346;-73
2023/08/28 10:14:19;;;;;;;;;;;;;;;15.28;43.16;95122.78;4955206;28;20175;-72
2023/08/28 10:16:57;;;;;;;;;;;;;;;15.03;43.05;95134.31;4954264;28;19929;-73
2023/08/28 10:19:33;;;;;;;;;;;;;;;15.37;42.04;95142.09;4954803;28;20005;-72
2023/08/28 10:21:59;;;;;;;;;;;;;;;15.60;42.04;95140.66;4958948;28;19929;-78
2023/08/28 10:24:24;;;;;;;;;;;;;;;16.10;40.07;95141.56;4956101;28;20273;-77
2023/08/28 10:26:49;;;;;;;;;;;;;;;16.74;37.77;95143.03;4956133;28;20206;-78
2023/08/28 10:29:15;;;;;;;;;;;;;;;16.48;38.63;95140.50;4960551;28;20426;-77
2023/08/28 10:31:41;;;;;;;;;;;;;;;16.64;36.93;95127.47;4957411;28;19922;-77
2023/08/28 10:34:06;;;;;;;;;;;;;;;16.77;39.46;95140.72;4939765;28;19949;-77
2023/08/28 10:36:31;;;;;;;;;;;;;;;17.27;37.53;95146.00;4942944;28;20007;-78
2023/08/28 10:38:57;;;;;;;;;;;;;;;17.81;36.25;95158.50;4956530;28;20008;-78
2023/08/28 10:41:23;;;;;;;;;;;;;;;17.20;37.11;95153.34;4957529;28;20595;-77
2023/08/28 10:43:48;;;;;;;;;;;;;;;17.14;38.08;95158.59;4957096;28;19933;-78
2023/08/28 10:46:13;;;;;;;;;;;;;;;17.48;36.23;95146.47;4957616;28;20453;-78
2023/08/28 10:48:39;;;;;;;;;;;;;;;17.48;36.52;95141.09;4954648;28;20005;-78
2023/08/28 10:51:04;;;;;;;;;;;;;;;17.11;36.56;95117.88;4960514;28;20426;-78
2023/08/28 10:53:29;;;;;;;;;;;;;;;17.20;37.85;95123.78;4948550;28;19968;-77
2023/08/28 10:55:56;;;;;;;;;;;;;;;17.06;37.80;95131.22;4957401;28;19922;-78
2023/08/28 10:58:21;;;;;;;;;;;;;;;17.51;35.13;95136.03;4959676;28;19933;-78
2023/08/28 11:00:47;;;;;;;;;;;;;;;18.31;35.33;95135.59;4955973;28;20445;-77
2023/08/28 11:03:15;;;;;;;;;;;;;;;17.85;36.72;95132.78;4960072;28;19922;-78
2023/08/28 11:05:40;;;;;;;;;;;;;;;18.60;34.20;95144.78;4961728;28;20456;-78
2023/08/28 11:08:07;;;;;;;;;;;;;;;18.65;34.00;95152.94;4959136;28;19929;-78
2023/08/28 11:10:32;;;;;;;;;;;;;;;18.84;32.34;95163.53;4959965;28;20043;-78
2023/08/28 11:13:01;;;;;;;;;;;;;;;19.28;31.52;95155.66;4957197;28;20684;-78
2023/08/28 11:15:30;;;;;;;;;;;;;;;19.54;31.49;95149.84;4957274;28;20225;-78
2023/08/28 11:18:14;;;;;;;;;;;;;;;19.64;32.32;95151.91;4955696;28;19929;-79
2023/08/28 11:20:40;;;;;;;;;;;;;;;19.42;33.08;95140.00;4956726;28;20292;-78
2023/08/28 11:23:05;;;;;;;;;;;;;;;19.71;31.19;95130.94;4957541;28;19989;-78
2023/08/28 11:25:37;;;;;;;;;;;;;;;20.02;31.60;95130.56;4958149;28;21376;-78
2023/08/28 11:28:02;;;;;;;;;;;;;;;20.80;30.96;95132.25;4954339;28;20047;-79
2023/08/28 11:30:28;;;;;;;;;;;;;;;20.71;30.38;95147.31;4959337;28;20371;-78
2023/08/28 11:32:55;;;;;;;;;;;;;;;20.80;30.43;95145.78;4956426;28;20101;-79
2023/08/28 11:35:20;;;;;;;;;;;;;;;21.30;30.87;95140.31;4939094;28;20191;-79
2023/08/28 11:37:46;;;;;;;;;;;;;;;21.77;29.79;95129.78;4956566;28;19917;-79
2023/08/28 11:40:16;;;;;;;;;;;;;;;21.95;26.88;95125.84;4954603;28;19937;-79
2023/08/28 11:42:42;;;;;;;;;;;;;;;22.03;29.86;95127.25;4962037;28;19929;-79
2023/08/28 11:45:07;;;;;;;;;;;;;;;22.47;26.98;95125.22;4966753;28;19956;-79
2023/08/28 11:47:32;;;;;;;;;;;;;;;23.16;25.33;95123.22;4966004;28;19945;-78
2023/08/28 11:49:59;;;;;;;;;;;;;;;23.10;25.61;95132.41;4975537;28;19933;-78
2023/08/28 11:52:24;;;;;;;;;;;;;;;22.82;26.74;95131.03;4971193;28;19926;-79
2023/08/28 11:54:49;;;;;;;;;;;;;;;23.12;27.86;95134.84;4969713;28;19929;-79
2023/08/28 11:57:15;;;;;;;;;;;;;;;22.96;27.91;95129.41;4967028;28;20335;-80
2023/08/28 11:59:40;;;;;;;;;;;;;;;22.89;27.90;95126.97;4966919;28;19953;-79
2023/08/28 12:02:06;;;;;;;;;;;;;;;23.41;26.01;95131.63;4965035;28;19918;-80
2023/08/28 12:04:37;;;;;;;;;;;;;;;23.46;26.44;95122.66;4967063;28;19961;-78
2023/08/28 12:07:05;;;;;;;;;;;;;;;23.83;26.70;95121.53;4967482;28;20401;-81
2023/08/28 12:09:30;;;;;;;;;;;;;;;23.56;26.88;95119.94;4970190;28;20140;-78
2023/08/28 12:11:56;;;;;;;;;;;;;;;23.37;26.15;95119.66;4967856;28;20533;-76
2023/08/28 12:14:22;;;;;;;;;;;;;;;23.04;27.36;95117.19;4958508;28;20113;-78
2023/08/28 12:16:49;;;;;;;;;;;;;;;22.81;26.05;95110.41;4958808;28;20316;-79
2023/08/28 12:19:21;;;;;;;;;;;;;;;22.62;28.07;95110.91;4958198;28;20164;-78
2023/08/28 12:21:46;;;;;;;;;;;;;;;21.57;28.07;95109.63;4957387;28;19940;-78
2023/08/28 12:24:11;;;;;;;;;;;;;;;21.44;27.40;95101.94;4956593;28;19926;-78
2023/08/28 12:26:37;;;;;;;;;;;;;;;22.51;27.98;95096.50;4961073;28;19929;-76
2023/08/28 12:29:03;;;;;;;;;;;;;;;23.23;24.02;95087.66;4956517;28;20319;-78
2023/08/28 12:31:32;;;;;;;;;;;;;;;22.58;26.57;95078.09;4963146;28;20015;-77
2023/08/28 12:33:57;;;;;;;;;;;;;;;22.06;28.23;95069.78;4960670;28;20453;-78
2023/08/28 12:36:36;;;;;;;;;;;;;;;19.18;30.02;95069.16;4955848;28;20068;-77
2023/08/28 12:39:01;;;;;;;;;;;;;;;21.37;29.32;95065.09;4961540;28;20686;-76
2023/08/28 12:41:26;;;;;;;;;;;;;;;20.66;29.48;95063.47;4959717;28;19922;-78
2023/08/28 12:43:51;;;;;;;;;;;;;;;20.83;29.54;95058.72;4958502;28;20020;-77